Time;durP1;ratioP1;P1;durP2;ratioP2;P2;SDS_P1;SDS_P2;PMS_P1;PMS_P2;Temp;Humidity;BMP_temperature;BMP_pressure;BME280_temperature;BME280_humidity;BME280_pressure;Samples;Min_cycle;Max_cycle;Signal;HPM_P1;HPM_P2
2022/11/09 00:01:25;;;;;;;0.00;0.00;;;13.10;99.90;;;;;;4967453;28;20209;-74
2022/11/09 00:03:56;;;;;;;0.10;0.10;;;13.10;99.90;;;;;;4987938;28;20581;-74
2022/11/09 00:06:25;;;;;;;0.00;0.00;;;13.10;99.90;;;;;;4967780;28;20202;-74
2022/11/09 00:08:52;;;;;;;0.00;0.00;;;13.10;99.90;;;;;;4978187;28;20216;-74
2022/11/09 00:11:20;;;;;;;0.00;0.00;;;13.20;99.90;;;;;;4985012;28;20206;-74
2022/11/09 00:13:48;;;;;;;0.00;0.00;;;13.10;99.90;;;;;;4969724;28;20229;-74
2022/11/09 00:16:17;;;;;;;0.00;0.00;;;13.10;99.90;;;;;;4967228;28;20206;-74
2022/11/09 00:18:46;;;;;;;0.00;0.00;;;13.10;99.90;;;;;;4974759;28;20201;-73
2022/11/09 00:21:17;;;;;;;0.00;0.00;;;13.10;99.90;;;;;;4987050;28;20259;-74
2022/11/09 00:23:46;;;;;;;0.00;0.00;;;13.10;99.90;;;;;;4978147;28;20232;-74
2022/11/09 00:26:15;;;;;;;0.00;0.00;;;13.10;99.90;;;;;;4986534;28;20201;-74
2022/11/09 00:28:43;;;;;;;0.00;0.00;;;13.00;99.90;;;;;;4985624;28;20224;-73
2022/11/09 00:31:12;;;;;;;0.00;0.00;;;13.10;99.90;;;;;;4979396;28;20212;-74
2022/11/09 00:33:40;;;;;;;0.00;0.00;;;13.00;99.90;;;;;;4972939;28;20248;-73
2022/11/09 00:36:11;;;;;;;0.00;0.00;;;12.90;99.90;;;;;;4969444;28;20212;-73
2022/11/09 00:38:39;;;;;;;0.10;0.10;;;12.90;99.90;;;;;;4970175;28;20209;-74
2022/11/09 00:41:09;;;;;;;0.00;0.00;;;12.90;99.90;;;;;;4990826;28;20655;-73
2022/11/09 00:43:37;;;;;;;0.00;0.00;;;12.80;99.90;;;;;;4973017;28;20219;-72
2022/11/09 00:46:06;;;;;;;0.00;0.00;;;12.80;99.90;;;;;;4985897;28;20205;-73
2022/11/09 00:48:33;;;;;;;0.00;0.00;;;12.80;99.90;;;;;;4980252;28;20208;-74
2022/11/09 00:51:02;;;;;;;0.00;0.00;;;12.90;99.90;;;;;;4972025;28;20678;-73
2022/11/09 00:53:30;;;;;;;0.00;0.00;;;12.80;99.90;;;;;;4971404;28;20225;-73
2022/11/09 00:55:59;;;;;;;0.00;0.00;;;12.90;99.90;;;;;;5011613;28;20205;-73
2022/11/09 00:58:30;;;;;;;0.00;0.00;;;12.70;99.90;;;;;;4974107;28;20198;-73
2022/11/09 01:00:59;;;;;;;0.00;0.00;;;12.80;99.90;;;;;;4967997;28;20276;-74
2022/11/09 01:03:27;;;;;;;0.00;0.00;;;12.70;99.90;;;;;;4980020;28;20688;-73
2022/11/09 01:05:54;;;;;;;0.00;0.00;;;12.90;99.90;;;;;;4981060;28;20264;-73
2022/11/09 01:08:21;;;;;;;0.00;0.00;;;12.70;99.90;;;;;;4988281;28;20295;-73
2022/11/09 01:10:49;;;;;;;0.00;0.00;;;12.70;99.90;;;;;;4972363;28;20672;-73
2022/11/09 01:13:18;;;;;;;0.03;0.03;;;12.70;99.90;;;;;;4990014;28;20225;-74
2022/11/09 01:15:48;;;;;;;0.00;0.00;;;12.70;99.90;;;;;;4979344;28;20216;-74
2022/11/09 01:18:17;;;;;;;0.10;0.10;;;12.80;99.90;;;;;;4971489;28;20206;-74
2022/11/09 01:20:45;;;;;;;0.00;0.00;;;12.70;99.90;;;;;;4978698;28;20305;-74
2022/11/09 01:23:14;;;;;;;0.00;0.00;;;12.60;99.90;;;;;;4972454;28;20265;-74
2022/11/09 01:25:41;;;;;;;0.00;0.00;;;12.60;99.90;;;;;;4978929;28;20202;-74
2022/11/09 01:28:10;;;;;;;0.00;0.00;;;12.70;99.90;;;;;;4973834;28;20209;-74
2022/11/09 01:30:40;;;;;;;0.00;0.00;;;12.60;99.90;;;;;;4971513;28;20209;-74
2022/11/09 01:33:10;;;;;;;0.00;0.00;;;12.50;99.90;;;;;;4970448;28;20243;-73
2022/11/09 01:35:39;;;;;;;0.00;0.00;;;12.50;99.90;;;;;;4970550;28;20202;-74
2022/11/09 01:38:08;;;;;;;0.00;0.00;;;12.60;99.90;;;;;;4980382;28;20201;-73
2022/11/09 01:40:37;;;;;;;0.00;0.00;;;12.50;99.90;;;;;;4970161;28;20216;-74
2022/11/09 01:43:13;;;;;;;0.00;0.00;;;12.40;99.90;;;;;;4969464;28;20210;-74
2022/11/09 01:45:42;;;;;;;0.00;0.00;;;12.50;99.90;;;;;;4980808;28;20320;-74
2022/11/09 01:48:15;;;;;;;0.00;0.00;;;12.50;99.90;;;;;;4987843;28;20205;-74
2022/11/09 01:50:48;;;;;;;0.00;0.00;;;12.50;99.90;;;;;;4967398;28;20206;-74
2022/11/09 01:53:19;;;;;;;0.00;0.00;;;12.60;99.90;;;;;;4979407;28;20221;-73
2022/11/09 01:55:51;;;;;;;0.00;0.00;;;12.50;99.90;;;;;;4972209;28;20217;-74
2022/11/09 01:58:22;;;;;;;0.00;0.00;;;12.70;99.90;;;;;;4971582;28;20292;-74
2022/11/09 02:00:50;;;;;;;0.00;0.00;;;12.80;99.90;;;;;;4973515;28;20201;-74
2022/11/09 02:03:25;;;;;;;0.00;0.00;;;12.60;99.90;;;;;;4968578;28;20221;-74
2022/11/09 02:05:53;;;;;;;0.00;0.00;;;12.60;99.90;;;;;;4968298;28;20267;-74
2022/11/09 02:08:23;;;;;;;0.00;0.00;;;12.60;99.90;;;;;;4970338;28;20260;-74
2022/11/09 02:10:57;;;;;;;0.00;0.00;;;12.70;99.90;;;;;;4979190;28;20269;-74
2022/11/09 02:13:26;;;;;;;0.00;0.00;;;12.70;99.90;;;;;;4987709;28;20275;-74
2022/11/09 02:15:54;;;;;;;0.10;0.10;;;12.80;99.90;;;;;;4973979;28;20208;-75
2022/11/09 02:18:22;;;;;;;0.00;0.00;;;12.80;99.90;;;;;;4971970;28;20209;-75
2022/11/09 02:20:53;;;;;;;0.00;0.00;;;12.90;99.90;;;;;;4971580;28;20269;-74
2022/11/09 02:23:23;;;;;;;0.00;0.00;;;12.80;99.90;;;;;;4969779;28;20330;-74
2022/11/09 02:25:54;;;;;;;0.00;0.00;;;12.90;99.90;;;;;;4970418;28;20224;-74
2022/11/09 02:28:22;;;;;;;0.00;0.00;;;12.90;99.90;;;;;;4985425;28;20197;-74
2022/11/09 02:30:52;;;;;;;0.00;0.00;;;12.80;99.90;;;;;;4968566;28;20295;-75
2022/11/09 02:33:19;;;;;;;0.00;0.00;;;13.00;99.90;;;;;;4971889;28;20312;-74
2022/11/09 02:35:47;;;;;;;0.00;0.00;;;12.80;99.90;;;;;;4971711;28;20296;-74
2022/11/09 02:38:16;;;;;;;0.00;0.00;;;12.90;99.90;;;;;;4971724;28;20288;-75
2022/11/09 02:40:46;;;;;;;0.00;0.00;;;12.90;99.90;;;;;;4971402;28;20205;-75
2022/11/09 02:43:15;;;;;;;0.00;0.00;;;13.00;99.90;;;;;;4970471;28;20305;-75
2022/11/09 02:45:44;;;;;;;0.00;0.00;;;12.90;99.90;;;;;;4971266;28;20206;-75
2022/11/09 02:48:11;;;;;;;0.00;0.00;;;12.90;99.90;;;;;;4993064;28;20212;-74
2022/11/09 02:50:39;;;;;;;0.00;0.00;;;12.90;99.90;;;;;;4970528;28;20696;-74
2022/11/09 02:53:06;;;;;;;0.10;0.10;;;12.90;99.90;;;;;;4968855;28;20237;-74
2022/11/09 02:55:38;;;;;;;0.00;0.00;;;13.10;99.90;;;;;;4969230;28;20209;-74
2022/11/09 02:58:07;;;;;;;0.00;0.00;;;13.00;99.90;;;;;;4976719;28;20236;-74
2022/11/09 03:00:35;;;;;;;0.00;0.00;;;13.10;99.90;;;;;;4985051;28;20209;-74
2022/11/09 03:03:04;;;;;;;0.00;0.00;;;13.10;99.90;;;;;;4971395;28;20217;-74
2022/11/09 03:05:31;;;;;;;0.00;0.00;;;13.20;99.90;;;;;;4970449;28;20198;-75
2022/11/09 03:08:01;;;;;;;0.00;0.00;;;13.20;99.90;;;;;;4973585;28;20208;-75
2022/11/09 03:10:31;;;;;;;0.00;0.00;;;13.30;99.90;;;;;;4969452;28;20209;-74
2022/11/09 03:13:00;;;;;;;0.00;0.00;;;13.40;99.90;;;;;;4972400;28;20233;-74
2022/11/09 03:15:27;;;;;;;0.00;0.00;;;13.20;99.90;;;;;;4965535;28;20198;-73
2022/11/09 03:17:54;;;;;;;0.00;0.00;;;13.30;99.90;;;;;;4987216;28;20340;-73
2022/11/09 03:20:22;;;;;;;0.00;0.00;;;13.40;99.90;;;;;;4968582;28;20722;-74
2022/11/09 03:22:49;;;;;;;0.00;0.00;;;13.40;99.90;;;;;;4970672;28;20365;-73
2022/11/09 03:25:17;;;;;;;0.00;0.00;;;13.40;99.90;;;;;;4971052;28;20247;-73
2022/11/09 03:27:44;;;;;;;0.00;0.00;;;13.40;99.90;;;;;;4991879;28;20206;-73
2022/11/09 03:30:14;;;;;;;0.00;0.00;;;13.40;99.90;;;;;;4970401;28;20198;-73
2022/11/09 03:32:42;;;;;;;0.00;0.00;;;13.30;99.90;;;;;;4966736;28;20308;-73
2022/11/09 03:35:09;;;;;;;0.00;0.00;;;13.60;99.90;;;;;;4976963;28;20201;-73
2022/11/09 03:37:36;;;;;;;0.00;0.00;;;13.40;99.90;;;;;;4967975;28;20213;-73
2022/11/09 03:40:05;;;;;;;0.00;0.00;;;13.40;99.90;;;;;;4972088;28;20209;-73
2022/11/09 03:42:32;;;;;;;0.00;0.00;;;13.50;99.90;;;;;;4968850;28;20296;-73
2022/11/09 03:44:59;;;;;;;0.00;0.00;;;13.60;99.90;;;;;;4971079;28;20198;-73
2022/11/09 03:47:28;;;;;;;0.00;0.00;;;13.50;99.90;;;;;;4968868;28;20590;-73
2022/11/09 03:49:55;;;;;;;0.00;0.00;;;13.50;99.90;;;;;;4975284;28;20238;-74
2022/11/09 03:52:22;;;;;;;0.00;0.00;;;13.50;99.90;;;;;;4971353;28;20714;-73
2022/11/09 03:54:49;;;;;;;0.00;0.00;;;13.50;99.90;;;;;;4984809;28;20311;-73
2022/11/09 03:57:16;;;;;;;0.00;0.00;;;13.50;99.90;;;;;;4970706;28;20213;-74
2022/11/09 03:59:44;;;;;;;0.00;0.00;;;13.50;99.90;;;;;;4986375;28;20232;-73
2022/11/09 04:02:11;;;;;;;0.00;0.00;;;13.50;99.90;;;;;;4987378;28;20225;-74
2022/11/09 04:04:39;;;;;;;0.00;0.00;;;13.60;99.90;;;;;;4984862;28;20377;-73
2022/11/09 04:07:07;;;;;;;0.00;0.00;;;13.60;99.90;;;;;;4990367;28;20259;-73
2022/11/09 04:09:34;;;;;;;0.00;0.00;;;13.60;99.90;;;;;;4967141;28;20209;-73
2022/11/09 04:12:01;;;;;;;0.00;0.00;;;13.60;99.90;;;;;;4969277;28;20222;-74
2022/11/09 04:14:28;;;;;;;0.00;0.00;;;13.60;99.90;;;;;;4973747;28;20217;-73
2022/11/09 04:16:55;;;;;;;0.00;0.00;;;13.50;99.90;;;;;;4989139;28;20201;-73
2022/11/09 04:19:23;;;;;;;0.00;0.00;;;13.50;99.90;;;;;;4974603;28;20220;-73
2022/11/09 04:21:51;;;;;;;0.00;0.00;;;13.50;99.90;;;;;;4974723;28;20221;-74
2022/11/09 04:24:18;;;;;;;0.00;0.00;;;13.60;99.90;;;;;;4973357;28;20201;-73
2022/11/09 04:26:47;;;;;;;0.00;0.00;;;13.60;99.90;;;;;;4972740;28;20275;-73
2022/11/09 04:29:14;;;;;;;0.00;0.00;;;13.50;99.90;;;;;;4974886;28;20205;-74
2022/11/09 04:31:42;;;;;;;0.00;0.00;;;13.70;99.90;;;;;;4973315;28;20316;-73
2022/11/09 04:34:09;;;;;;;0.00;0.00;;;13.60;99.90;;;;;;4974623;28;20213;-73
2022/11/09 04:36:36;;;;;;;0.00;0.00;;;13.60;99.90;;;;;;4981225;28;20209;-76
2022/11/09 04:39:05;;;;;;;0.00;0.00;;;13.50;99.90;;;;;;4981149;28;20213;-77
2022/11/09 04:41:32;;;;;;;0.00;0.00;;;13.60;99.90;;;;;;4974186;28;20239;-76
2022/11/09 04:43:59;;;;;;;0.00;0.00;;;13.60;99.90;;;;;;4986969;28;20197;-73
2022/11/09 04:46:27;;;;;;;0.00;0.00;;;13.50;99.90;;;;;;4972555;28;20297;-73
2022/11/09 04:48:54;;;;;;;0.00;0.00;;;13.50;99.90;;;;;;4973601;28;20210;-73
2022/11/09 04:51:24;;;;;;;0.00;0.00;;;13.40;99.90;;;;;;4973380;28;20205;-73
2022/11/09 04:53:51;;;;;;;0.00;0.00;;;13.40;99.90;;;;;;4979507;28;20226;-73
2022/11/09 04:56:21;;;;;;;0.00;0.00;;;13.30;99.90;;;;;;4982234;28;20220;-73
2022/11/09 04:58:48;;;;;;;0.00;0.00;;;13.20;99.90;;;;;;4974509;28;20213;-73
2022/11/09 05:01:15;;;;;;;0.00;0.00;;;13.30;99.90;;;;;;4969340;28;20216;-72
2022/11/09 05:03:43;;;;;;;0.00;0.00;;;13.20;99.90;;;;;;4971100;28;20742;-72
2022/11/09 05:08:51;;;;;;;0.00;0.00;;;13.20;99.90;;;;;;4979952;28;20198;-74
2022/11/09 05:11:19;;;;;;;0.00;0.00;;;13.10;99.90;;;;;;4967897;28;20209;-74
2022/11/09 05:13:47;;;;;;;0.00;0.00;;;13.10;99.90;;;;;;4980140;28;20221;-75
2022/11/09 05:16:16;;;;;;;0.00;0.00;;;13.10;99.90;;;;;;4974208;28;20206;-76
2022/11/09 05:18:43;;;;;;;0.00;0.00;;;13.00;99.90;;;;;;4973642;28;20205;-76
2022/11/09 05:21:10;;;;;;;0.00;0.00;;;13.00;99.90;;;;;;4988512;28;20586;-75
2022/11/09 05:26:24;;;;;;;0.00;0.00;;;13.00;99.90;;;;;;4970030;28;20292;-74
2022/11/09 05:28:51;;;;;;;0.00;0.00;;;13.10;99.90;;;;;;4971895;28;20193;-73
2022/11/09 05:31:19;;;;;;;0.00;0.00;;;13.10;99.90;;;;;;4988050;28;20221;-71
2022/11/09 05:33:49;;;;;;;0.00;0.00;;;13.10;99.90;;;;;;4995066;28;20225;-70
2022/11/09 05:36:16;;;;;;;0.00;0.00;;;13.00;99.90;;;;;;4981200;28;20212;-71
2022/11/09 05:38:43;;;;;;;0.00;0.00;;;13.00;99.90;;;;;;4968542;28;20219;-71
2022/11/09 05:41:10;;;;;;;0.00;0.00;;;13.00;99.90;;;;;;4989149;28;20201;-72
2022/11/09 05:43:38;;;;;;;0.00;0.00;;;13.00;99.90;;;;;;4973735;28;20205;-74
2022/11/09 05:46:06;;;;;;;0.00;0.00;;;13.00;99.90;;;;;;4968627;28;20255;-74
2022/11/09 05:48:33;;;;;;;0.00;0.00;;;13.00;99.90;;;;;;4974569;28;20255;-76
2022/11/09 05:51:02;;;;;;;0.00;0.00;;;12.90;99.90;;;;;;4986670;28;20209;-76
2022/11/09 05:53:29;;;;;;;0.00;0.00;;;12.90;99.90;;;;;;4967048;28;20229;-75
2022/11/09 05:55:56;;;;;;;0.00;0.00;;;12.90;99.90;;;;;;4995057;28;20325;-74
2022/11/09 05:58:23;;;;;;;0.00;0.00;;;12.90;99.90;;;;;;4991661;28;20223;-75
2022/11/09 06:00:52;;;;;;;0.07;0.07;;;12.80;99.90;;;;;;4990855;28;20291;-76
2022/11/09 06:03:19;;;;;;;0.00;0.00;;;12.70;99.90;;;;;;4990107;28;20328;-74
2022/11/09 06:05:46;;;;;;;0.00;0.00;;;12.80;99.90;;;;;;4972841;28;20212;-72
2022/11/09 06:08:15;;;;;;;0.00;0.00;;;12.70;99.90;;;;;;4980722;28;20201;-71
2022/11/09 06:10:43;;;;;;;0.00;0.00;;;12.70;99.90;;;;;;4977903;28;20206;-72
2022/11/09 06:13:11;;;;;;;0.00;0.00;;;12.80;99.90;;;;;;4980599;28;20221;-73
2022/11/09 06:15:38;;;;;;;0.00;0.00;;;12.70;99.90;;;;;;4970691;28;20235;-74
2022/11/09 06:18:07;;;;;;;0.00;0.00;;;12.70;99.90;;;;;;4969686;28;20216;-73
2022/11/09 06:20:34;;;;;;;0.00;0.00;;;12.80;99.90;;;;;;4968562;28;20233;-74
2022/11/09 06:23:02;;;;;;;0.00;0.00;;;12.70;99.90;;;;;;4972040;28;20577;-74
2022/11/09 06:25:31;;;;;;;0.00;0.00;;;12.70;99.90;;;;;;4970756;28;20248;-74
2022/11/09 06:27:58;;;;;;;0.00;0.00;;;12.70;99.90;;;;;;4970902;28;20248;-74
2022/11/09 06:30:26;;;;;;;0.00;0.00;;;12.60;99.90;;;;;;4973102;28;20214;-76
2022/11/09 06:32:58;;;;;;;0.00;0.00;;;12.70;99.90;;;;;;4977926;28;20336;-73
2022/11/09 06:35:27;;;;;;;0.00;0.00;;;12.80;99.90;;;;;;4977361;28;20301;-74
2022/11/09 06:37:56;;;;;;;0.00;0.00;;;12.70;99.90;;;;;;4973663;28;20202;-73
2022/11/09 06:40:25;;;;;;;0.00;0.00;;;12.70;99.90;;;;;;4969811;28;20202;-73
2022/11/09 06:42:55;;;;;;;0.00;0.00;;;12.80;99.90;;;;;;4989580;28;20340;-73
2022/11/09 06:45:23;;;;;;;0.00;0.00;;;12.70;99.90;;;;;;4979952;28;20201;-73
2022/11/09 06:47:50;;;;;;;0.00;0.00;;;12.80;99.90;;;;;;4968249;28;20221;-73
2022/11/09 06:50:18;;;;;;;0.00;0.00;;;12.70;99.90;;;;;;4969638;28;20213;-73
2022/11/09 06:52:46;;;;;;;0.00;0.00;;;12.80;99.90;;;;;;4966019;28;20320;-74
2022/11/09 06:55:14;;;;;;;0.00;0.00;;;12.80;99.90;;;;;;4968502;28;20221;-74
2022/11/09 06:57:41;;;;;;;0.00;0.00;;;12.70;99.90;;;;;;4968615;28;20210;-73
2022/11/09 07:00:10;;;;;;;0.00;0.00;;;12.90;99.90;;;;;;4988160;28;20240;-74
2022/11/09 07:02:37;;;;;;;0.00;0.00;;;12.70;99.90;;;;;;4968826;28;20363;-74
2022/11/09 07:05:05;;;;;;;0.00;0.00;;;12.70;99.90;;;;;;4979889;28;20197;-74
2022/11/09 07:07:32;;;;;;;0.10;0.10;;;12.80;99.90;;;;;;4978319;28;20237;-73
2022/11/09 07:10:01;;;;;;;0.00;0.00;;;12.80;99.90;;;;;;4978471;28;20229;-74
2022/11/09 07:12:28;;;;;;;0.00;0.00;;;12.70;99.90;;;;;;4972931;28;20221;-73
2022/11/09 07:14:56;;;;;;;0.00;0.00;;;12.70;99.90;;;;;;4987008;28;20225;-74
2022/11/09 07:17:23;;;;;;;0.00;0.00;;;12.80;99.90;;;;;;4968560;28;20568;-75
2022/11/09 07:19:50;;;;;;;0.00;0.00;;;12.70;99.90;;;;;;4968998;28;20208;-74
2022/11/09 07:22:18;;;;;;;0.00;0.00;;;12.70;99.90;;;;;;4987178;28;20225;-76
2022/11/09 07:24:46;;;;;;;0.00;0.00;;;12.70;99.90;;;;;;4972439;28;20860;-74
2022/11/09 07:27:15;;;;;;;0.07;0.07;;;12.70;99.90;;;;;;5008870;28;20224;-74
2022/11/09 07:29:42;;;;;;;0.00;0.00;;;12.70;99.90;;;;;;4973270;28;20220;-75
2022/11/09 07:32:09;;;;;;;0.00;0.00;;;12.70;99.90;;;;;;4987314;28;20317;-74
2022/11/09 07:34:37;;;;;;;0.00;0.00;;;12.80;99.90;;;;;;4968764;28;20224;-74
2022/11/09 07:37:04;;;;;;;0.00;0.00;;;12.80;99.90;;;;;;4970551;28;20233;-74
2022/11/09 07:39:31;;;;;;;0.00;0.00;;;12.60;99.90;;;;;;4968403;28;20248;-74
2022/11/09 07:41:58;;;;;;;0.00;0.00;;;12.80;99.90;;;;;;4970190;28;20339;-74
2022/11/09 07:44:28;;;;;;;0.00;0.00;;;12.60;99.90;;;;;;4967857;28;20190;-74
2022/11/09 07:46:55;;;;;;;0.00;0.00;;;12.80;99.90;;;;;;4967372;28;20205;-75
2022/11/09 07:49:22;;;;;;;0.00;0.00;;;12.60;99.90;;;;;;4979642;28;20197;-75
2022/11/09 07:51:49;;;;;;;0.00;0.00;;;12.70;99.90;;;;;;4984919;28;20217;-75
2022/11/09 07:54:17;;;;;;;0.00;0.00;;;12.80;99.90;;;;;;4970005;28;20221;-75
2022/11/09 07:56:44;;;;;;;0.00;0.00;;;12.60;99.90;;;;;;4968451;28;20241;-75
2022/11/09 07:59:11;;;;;;;0.00;0.00;;;12.70;99.90;;;;;;4971800;28;20291;-74
2022/11/09 08:01:40;;;;;;;0.00;0.00;;;12.80;99.90;;;;;;4970065;28;20288;-75
2022/11/09 08:04:07;;;;;;;0.00;0.00;;;12.90;99.90;;;;;;4992462;28;20206;-75
2022/11/09 08:06:34;;;;;;;0.00;0.00;;;12.90;99.90;;;;;;4970439;28;20348;-75
2022/11/09 08:09:01;;;;;;;0.00;0.00;;;12.70;99.90;;;;;;4994727;28;20239;-74
2022/11/09 08:11:28;;;;;;;0.00;0.00;;;12.80;99.90;;;;;;4988039;28;20468;-75
2022/11/09 08:13:55;;;;;;;0.00;0.00;;;12.80;99.90;;;;;;4972163;28;20209;-75
2022/11/09 08:16:23;;;;;;;0.00;0.00;;;12.90;99.90;;;;;;4976337;28;20213;-75
2022/11/09 08:18:52;;;;;;;0.00;0.00;;;12.90;99.90;;;;;;4967869;28;20197;-73
2022/11/09 08:21:19;;;;;;;0.00;0.00;;;13.00;99.90;;;;;;4966113;28;20205;-75
2022/11/09 08:23:46;;;;;;;0.00;0.00;;;13.00;99.90;;;;;;4969453;28;20232;-75
2022/11/09 08:26:13;;;;;;;0.00;0.00;;;13.10;99.90;;;;;;4971403;28;20215;-75
2022/11/09 08:28:41;;;;;;;0.00;0.00;;;13.20;99.90;;;;;;4977436;28;20695;-75
2022/11/09 08:31:09;;;;;;;0.00;0.00;;;13.30;99.90;;;;;;4985497;28;20228;-75
2022/11/09 08:33:38;;;;;;;0.00;0.00;;;13.30;99.90;;;;;;4967156;28;20225;-75
2022/11/09 08:36:11;;;;;;;0.00;0.00;;;13.30;99.90;;;;;;4982084;28;20320;-75
2022/11/09 08:38:39;;;;;;;0.00;0.00;;;13.50;99.90;;;;;;4970294;28;20209;-75
2022/11/09 08:41:06;;;;;;;0.00;0.00;;;13.70;99.90;;;;;;4985075;28;20213;-75
2022/11/09 08:43:34;;;;;;;0.00;0.00;;;13.80;99.90;;;;;;4982290;28;20239;-75
2022/11/09 08:46:01;;;;;;;0.00;0.00;;;14.10;99.90;;;;;;4967624;28;20208;-73
2022/11/09 08:48:28;;;;;;;0.00;0.00;;;14.30;99.90;;;;;;4969774;28;20213;-75
2022/11/09 08:50:58;;;;;;;0.00;0.00;;;14.20;99.90;;;;;;4985384;28;20216;-75
2022/11/09 08:53:28;;;;;;;0.00;0.00;;;14.40;99.90;;;;;;4968779;28;20226;-75
2022/11/09 08:55:56;;;;;;;0.00;0.00;;;14.30;99.90;;;;;;4970128;28;20275;-75
2022/11/09 08:58:24;;;;;;;0.00;0.00;;;14.40;99.90;;;;;;4970203;28;20260;-74
2022/11/09 09:00:51;;;;;;;0.00;0.00;;;14.30;99.90;;;;;;4974675;28;20202;-76
2022/11/09 09:03:18;;;;;;;0.00;0.00;;;14.40;99.90;;;;;;4973777;28;20245;-75
2022/11/09 09:05:45;;;;;;;0.00;0.00;;;14.20;99.90;;;;;;4973106;28;20233;-76
2022/11/09 09:08:14;;;;;;;0.10;0.10;;;14.40;99.90;;;;;;4987653;28;20237;-75
2022/11/09 09:10:43;;;;;;;0.00;0.00;;;14.30;99.90;;;;;;4971461;28;20220;-75
2022/11/09 09:13:10;;;;;;;0.00;0.00;;;14.30;99.90;;;;;;4972361;28;20221;-75
2022/11/09 09:15:37;;;;;;;0.00;0.00;;;14.40;99.90;;;;;;4972284;28;20233;-75
2022/11/09 09:18:05;;;;;;;0.00;0.00;;;14.30;99.90;;;;;;4974495;28;20267;-75
2022/11/09 09:20:33;;;;;;;0.00;0.00;;;14.20;99.90;;;;;;4989851;28;20217;-75
2022/11/09 09:23:01;;;;;;;0.00;0.00;;;14.40;99.90;;;;;;4969631;28;20236;-75
2022/11/09 09:25:28;;;;;;;0.00;0.00;;;14.40;99.90;;;;;;4979992;28;20202;-75
2022/11/09 09:27:57;;;;;;;0.10;0.10;;;14.40;99.90;;;;;;5010095;28;20201;-75
2022/11/09 09:30:25;;;;;;;0.00;0.00;;;14.30;99.90;;;;;;4973385;28;20224;-74
2022/11/09 09:32:52;;;;;;;0.00;0.00;;;14.20;99.90;;;;;;4979674;28;20232;-74
2022/11/09 09:35:19;;;;;;;0.10;0.10;;;14.20;99.90;;;;;;4973046;28;20249;-74
2022/11/09 09:37:47;;;;;;;0.00;0.00;;;14.20;99.90;;;;;;4969593;28;20247;-75
2022/11/09 09:40:25;;;;;;;0.00;0.00;;;14.20;99.90;;;;;;4986120;28;20300;-75
2022/11/09 09:42:54;;;;;;;0.00;0.00;;;14.20;99.90;;;;;;4971982;28;20224;-75
2022/11/09 09:45:27;;;;;;;0.00;0.00;;;14.30;99.90;;;;;;4972566;28;20265;-74
2022/11/09 09:48:02;;;;;;;0.00;0.00;;;14.20;99.90;;;;;;4968015;28;20354;-75
2022/11/09 09:50:36;;;;;;;0.00;0.00;;;14.20;99.90;;;;;;4989826;28;20259;-75
2022/11/09 09:53:12;;;;;;;0.00;0.00;;;14.30;99.90;;;;;;4995972;28;20226;-74
2022/11/09 09:55:42;;;;;;;0.00;0.00;;;14.00;99.90;;;;;;4980693;28;20228;-74
2022/11/09 09:58:13;;;;;;;0.00;0.00;;;14.20;99.90;;;;;;4970847;28;20228;-74
2022/11/09 10:00:43;;;;;;;0.00;0.00;;;14.30;99.90;;;;;;4971618;28;20679;-75
2022/11/09 10:03:15;;;;;;;0.00;0.00;;;14.20;99.90;;;;;;4988905;28;20217;-74
2022/11/09 10:05:54;;;;;;;0.00;0.00;;;14.40;99.90;;;;;;4995640;28;20252;-75
2022/11/09 10:08:31;;;;;;;0.00;0.00;;;14.30;99.90;;;;;;4981247;28;20209;-75
2022/11/09 10:11:10;;;;;;;0.00;0.00;;;14.50;99.90;;;;;;4974960;28;20210;-75
2022/11/09 10:13:55;;;;;;;0.00;0.00;;;14.60;99.90;;;;;;4970549;28;20229;-76
2022/11/09 10:16:34;;;;;;;0.00;0.00;;;14.60;99.90;;;;;;4977763;28;20264;-75
2022/11/09 10:19:38;;;;;;;0.00;0.00;;;14.80;99.90;;;;;;4971015;28;20292;-75
2022/11/09 10:22:12;;;;;;;0.00;0.00;;;14.80;99.90;;;;;;4970470;28;20252;-76
2022/11/09 10:24:52;;;;;;;0.00;0.00;;;14.80;99.90;;;;;;4968196;28;20205;-75
2022/11/09 10:27:27;;;;;;;0.00;0.00;;;14.90;99.90;;;;;;4972418;28;20205;-75
2022/11/09 10:29:55;;;;;;;0.00;0.00;;;15.10;99.90;;;;;;4969325;28;20197;-75
2022/11/09 10:32:24;;;;;;;0.00;0.00;;;15.30;99.90;;;;;;4972894;28;20231;-75
2022/11/09 10:34:54;;;;;;;0.00;0.00;;;15.40;99.90;;;;;;4978663;28;20207;-74
2022/11/09 10:37:27;;;;;;;0.00;0.00;;;15.60;99.90;;;;;;5011362;28;20261;-75
2022/11/09 10:40:02;;;;;;;0.00;0.00;;;15.90;99.90;;;;;;4978865;28;20260;-73
2022/11/09 10:42:50;;;;;;;0.00;0.00;;;15.90;99.90;;;;;;4978063;28;20340;-73
2022/11/09 10:45:38;;;;;;;0.00;0.00;;;16.10;99.90;;;;;;4980284;28;20228;-73
2022/11/09 10:48:32;;;;;;;0.00;0.00;;;16.00;99.90;;;;;;4979815;28;20204;-73
2022/11/09 10:51:39;;;;;;;0.00;0.00;;;16.10;99.90;;;;;;4978752;28;20373;-74
2022/11/09 10:54:27;;;;;;;0.00;0.00;;;16.20;99.90;;;;;;4980447;28;20275;-74
2022/11/09 10:57:15;;;;;;;0.00;0.00;;;;;;;;;;4980309;28;20216;-74
2022/11/09 11:00:01;;;;;;;0.00;0.00;;;;;;;;;;4978806;28;20255;-75
2022/11/09 11:02:50;;;;;;;0.00;0.00;;;;;;;;;;4978850;28;20255;-75
2022/11/09 11:05:38;;;;;;;0.00;0.00;;;;;;;;;;4978176;28;20293;-76
2022/11/09 11:08:27;;;;;;;0.00;0.00;;;;;;;;;;4979734;28;20213;-76
2022/11/09 11:11:19;;;;;;;0.00;0.00;;;;;;;;;;4977995;28;20216;-74
2022/11/09 11:14:14;;;;;;;0.00;0.00;;;;;;;;;;4976659;28;20216;-73
2022/11/09 11:17:00;;;;;;;0.00;0.00;;;;;;;;;;4978560;28;20851;-73
2022/11/09 11:19:47;;;;;;;0.00;0.00;;;;;;;;;;4979515;28;20220;-72
2022/11/09 11:22:34;;;;;;;0.00;0.00;;;;;;;;;;4972906;28;20395;-73
2022/11/09 11:25:21;;;;;;;0.00;0.00;;;;;;;;;;4978220;28;20212;-74
2022/11/09 11:28:16;;;;;;;0.00;0.00;;;;;;;;;;4979249;28;20213;-74
2022/11/09 11:31:02;;;;;;;0.00;0.00;;;;;;;;;;4976921;28;20291;-73
2022/11/09 11:33:49;;;;;;;0.00;0.00;;;;;;;;;;4978169;28;20339;-72
2022/11/09 11:36:42;;;;;;;0.00;0.00;;;;;;;;;;4977606;28;20237;-73
2022/11/09 11:39:35;;;;;;;0.00;0.00;;;;;;;;;;4973053;28;20212;-73
2022/11/09 11:42:27;;;;;;;0.00;0.00;;;;;;;;;;4977620;28;20308;-72
2022/11/09 11:45:16;;;;;;;0.00;0.00;;;;;;;;;;4978019;28;20220;-73
2022/11/09 11:48:16;;;;;;;0.00;0.00;;;;;;;;;;4976773;28;20213;-73
2022/11/09 11:51:04;;;;;;;0.00;0.00;;;;;;;;;;4978580;28;20208;-72
2022/11/09 11:53:58;;;;;;;0.00;0.00;;;;;;;;;;4977741;28;20247;-74
2022/11/09 11:56:47;;;;;;;0.00;0.00;;;;;;;;;;4977238;28;20235;-74
2022/11/09 11:59:40;;;;;;;0.00;0.00;;;;;;;;;;4979702;28;20224;-73
2022/11/09 12:02:39;;;;;;;0.00;0.00;;;;;;;;;;4977769;28;20263;-74
2022/11/09 12:05:44;;;;;;;0.00;0.00;;;;;;;;;;4977213;28;20208;-74
2022/11/09 12:08:37;;;;;;;0.00;0.00;;;;;;;;;;4977490;28;20583;-73
2022/11/09 12:11:29;;;;;;;0.00;0.00;;;;;;;;;;4976934;28;20208;-73
2022/11/09 12:14:23;;;;;;;0.00;0.00;;;;;;;;;;4977592;28;20209;-75
2022/11/09 12:17:14;;;;;;;0.00;0.00;;;;;;;;;;4978086;28;20235;-75
2022/11/09 12:20:05;;;;;;;0.00;0.00;;;;;;;;;;4978402;28;20212;-74
2022/11/09 12:22:57;;;;;;;0.00;0.00;;;;;;;;;;4978298;28;20235;-73
2022/11/09 12:25:47;;;;;;;0.00;0.00;;;;;;;;;;4977374;28;20224;-73
2022/11/09 12:28:51;;;;;;;0.00;0.00;;;;;;;;;;4977535;28;20280;-73
2022/11/09 12:31:46;;;;;;;0.00;0.00;;;;;;;;;;4978000;28;20235;-73
2022/11/09 12:34:34;;;;;;;0.00;0.00;;;;;;;;;;4977669;28;20240;-74
2022/11/09 12:37:24;;;;;;;0.00;0.00;;;;;;;;;;4981514;28;20236;-73
2022/11/09 12:40:16;;;;;;;0.00;0.00;;;;;;;;;;4982273;28;20213;-75
2022/11/09 12:43:04;;;;;;;0.00;0.00;;;;;;;;;;4980473;28;20232;-73
2022/11/09 12:45:52;;;;;;;0.00;0.00;;;;;;;;;;4979548;28;20271;-74
2022/11/09 12:48:41;;;;;;;0.00;0.00;;;;;;;;;;4983044;28;20594;-75
2022/11/09 12:51:27;;;;;;;0.00;0.00;;;;;;;;;;4980578;28;20220;-73
2022/11/09 12:54:14;;;;;;;0.00;0.00;;;;;;;;;;4983306;28;20343;-73
2022/11/09 12:57:01;;;;;;;0.00;0.00;;;;;;;;;;4982072;28;20228;-74
2022/11/09 12:59:50;;;;;;;0.00;0.00;;;;;;;;;;4981252;28;20240;-74
2022/11/09 13:02:38;;;;;;;0.00;0.00;;;;;;;;;;4982477;28;20240;-73
2022/11/09 13:05:30;;;;;;;0.00;0.00;;;;;;;;;;4980261;28;20271;-75
2022/11/09 13:08:19;;;;;;;0.00;0.00;;;;;;;;;;4980859;28;20270;-76
2022/11/09 13:11:19;;;;;;;0.00;0.00;;;;;;;;;;4981322;28;20285;-73
2022/11/09 13:14:25;;;;;;;0.00;0.00;;;;;;;;;;4978058;28;20209;-74
2022/11/09 13:17:30;;;;;;;0.00;0.00;;;;;;;;;;4981897;28;20263;-73
2022/11/09 13:20:31;;;;;;;0.00;0.00;;;;;;;;;;4980925;28;20212;-73
2022/11/09 13:23:38;;;;;;;0.00;0.00;;;;;;;;;;4982257;28;20235;-74
2022/11/09 13:26:46;;;;;;;0.00;0.00;;;;;;;;;;4981754;28;20204;-74
2022/11/09 13:29:48;;;;;;;0.00;0.00;;;;;;;;;;4979910;28;20707;-76
2022/11/09 13:32:34;;;;;;;0.00;0.00;;;;;;;;;;4978780;28;20287;-73
2022/11/09 13:35:38;;;;;;;0.00;0.00;;;;;;;;;;4975616;28;20209;-74
2022/11/09 13:38:25;;;;;;;0.00;0.00;;;;;;;;;;4947143;28;20207;-74
2022/11/09 13:41:26;;;;;;;0.00;0.00;;;;;;;;;;4980506;28;20212;-73
2022/11/09 13:44:23;;;;;;;0.00;0.00;;;;;;;;;;4981107;28;20211;-75